| time (UTC) | temp F | wind direction | speed knots | gust knots | rain 1hr in | rain 24hr in | rain mn in | humidity % | barometer mb |
| 20260507164055 | 54 | 293 | 1.7 | 1.7 | 0.00 | 0.00 | 0.00 | 57 | 1008.9 |
| 20260507163553 | 55 | 339 | 4.3 | 5.2 | 0.00 | 0.00 | 0.00 | 52 | 1008.9 |
| 20260507163051 | 54 | 322 | 1.7 | 2.6 | 0.00 | 0.00 | 0.00 | 50 | 1009.2 |
| 20260507162550 | 56 | 325 | 4.3 | 5.2 | 0.00 | 0.00 | 0.00 | 51 | 1009.1 |
| 20260507162047 | 55 | 20 | 1.7 | 2.6 | 0.00 | 0.00 | 0.00 | 48 | 1009.1 |
| 20260507161543 | 55 | 78 | 1.7 | 3.5 | 0.00 | 0.00 | 0.00 | 52 | 1009.2 |
| 20260507161040 | 54 | 42 | 1.7 | 2.6 | 0.00 | 0.00 | 0.00 | 49 | 1009.1 |
| 20260507160536 | 53 | 333 | 4.3 | 6.1 | 0.00 | 0.00 | 0.00 | 51 | 1009.2 |
| 20260507160033 | 52 | 356 | 2.6 | 2.6 | 0.00 | 0.00 | 0.00 | 57 | 1009.5 |
| 20260507155528 | 53 | 336 | 3.5 | 3.5 | 0.00 | 0.00 | 0.00 | 50 | 1009.4 |
| 20260507155026 | 54 | 228 | 4.3 | 5.2 | 0.00 | 0.00 | 0.00 | 50 | 1009.4 |
| 20260507154523 | 53 | 70 | 2.6 | 5.2 | 0.00 | 0.00 | 0.00 | 51 | 1009.3 |
| 20260507154020 | 54 | 283 | 4.3 | 6.1 | 0.00 | 0.00 | 0.00 | 49 | 1009.5 |
| 20260507153516 | 53 | 219 | 0.9 | 1.7 | 0.00 | 0.00 | 0.00 | 50 | 1009.3 |
| 20260507153012 | 54 | 32 | 2.6 | 3.5 | 0.00 | 0.00 | 0.00 | 55 | 1009.7 |
| 20260507152508 | 53 | 249 | 3.5 | 5.2 | 0.00 | 0.00 | 0.00 | 53 | 1009.9 |
| 20260507152005 | 54 | 303 | 3.5 | 5.2 | 0.00 | 0.00 | 0.00 | 53 | 1009.8 |
| 20260507151501 | 53 | 79 | 0.9 | 1.7 | 0.00 | 0.00 | 0.00 | 55 | 1009.7 |
| 20260507150958 | 53 | 229 | 3.5 | 3.5 | 0.00 | 0.00 | 0.00 | 55 | 1009.9 |
| 20260507150455 | 53 | 332 | 3.5 | 5.2 | 0.00 | 0.00 | 0.00 | 52 | 1009.8 |
| 20260507145951 | 52 | 321 | 1.7 | 2.6 | 0.00 | 0.00 | 0.00 | 55 | 1009.9 |
| 20260507145447 | 52 | 39 | 1.7 | 1.7 | 0.00 | 0.00 | 0.00 | 52 | 1010.2 |
| 20260507144944 | 52 | 322 | 2.6 | 2.6 | 0.00 | 0.00 | 0.00 | 55 | 1010.2 |
| 20260507144441 | 53 | 324 | 4.3 | 5.2 | 0.00 | 0.00 | 0.00 | 55 | 1009.9 |
| 20260507143938 | 51 | 23 | 0.9 | 0.9 | 0.00 | 0.00 | 0.00 | 51 | 1010.0 |
| 20260507143436 | 51 | 314 | 1.7 | 2.6 | 0.00 | 0.00 | 0.00 | 52 | 1010.2 |
| 20260507142932 | 51 | 344 | 2.6 | 2.6 | 0.00 | 0.00 | 0.00 | 55 | 1010.4 |
| 20260507142428 | 51 | 294 | 1.7 | 3.5 | 0.00 | 0.00 | 0.00 | 57 | 1010.4 |
| 20260507141925 | 51 | 184 | 1.7 | 1.7 | 0.00 | 0.00 | 0.00 | 59 | 1010.5 |
| 20260507141421 | 50 | 267 | 2.6 | 2.6 | 0.00 | 0.00 | 0.00 | 61 | 1010.4 |
| 20260507140918 | 51 | 301 | 2.6 | 2.6 | 0.00 | 0.00 | 0.00 | 62 | 1010.6 |
| 20260507140414 | 50 | 19 | 1.7 | 1.7 | 0.00 | 0.00 | 0.00 | 60 | 1010.6 |
| 20260507135913 | 50 | 230 | 1.7 | 2.6 | 0.00 | 0.00 | 0.00 | 61 | 1010.4 |
| 20260507135409 | 50 | 328 | 4.3 | 6.1 | 0.00 | 0.00 | 0.00 | 61 | 1010.8 |
| 20260507134906 | 49 | 322 | 1.7 | 1.7 | 0.00 | 0.00 | 0.00 | 64 | 1010.9 |
| 20260507134402 | 49 | 38 | 0.9 | 0.9 | 0.00 | 0.00 | 0.00 | 65 | 1010.5 |
| 20260507133859 | 49 | 342 | 1.7 | 1.7 | 0.00 | 0.00 | 0.00 | 64 | 1010.9 |
| 20260507133354 | 48 | 340 | 1.7 | 1.7 | 0.00 | 0.00 | 0.00 | 66 | 1010.7 |
| 20260507132853 | 48 | 297 | 1.7 | 1.7 | 0.00 | 0.00 | 0.00 | 63 | 1010.7 |
| 20260507132349 | 48 | 350 | 1.7 | 1.7 | 0.00 | 0.00 | 0.00 | 62 | 1010.6 |
| 20260507131846 | 48 | 46 | 0.9 | 1.7 | 0.00 | 0.00 | 0.00 | 63 | 1010.8 |
| 20260507131343 | 48 | 47 | 0.0 | 0.0 | 0.00 | 0.00 | 0.00 | 64 | 1010.7 |
| 20260507130840 | 46 | 23 | 0.9 | 0.9 | 0.00 | 0.00 | 0.00 | 67 | 1010.8 |
| 20260507130337 | 46 | 1 | 0.9 | 1.7 | 0.00 | 0.00 | 0.00 | 66 | 1010.9 |
| 20260507125836 | 45 | 356 | 2.6 | 3.5 | 0.00 | 0.00 | 0.00 | 67 | 1011.0 |
| 20260507125333 | 45 | 14 | 0.9 | 1.7 | 0.00 | 0.00 | 0.00 | 68 | 1011.1 |
| 20260507124830 | 45 | 62 | 0.0 | 0.0 | 0.00 | 0.00 | 0.00 | 67 | 1011.1 |
| 20260507124326 | 45 | 27 | 0.9 | 1.7 | 0.00 | 0.00 | 0.00 | 70 | 1011.0 |
| 20260507123825 | 44 | 22 | 0.0 | 0.9 | 0.00 | 0.00 | 0.00 | 71 | 1011.0 |
| 20260507123322 | 43 | 330 | 3.5 | 3.5 | 0.00 | 0.00 | 0.00 | 72 | 1011.3 |
| 20260507122818 | 43 | 42 | 0.9 | 0.9 | 0.00 | 0.00 | 0.00 | 78 | 1010.9 |
| 20260507122313 | 43 | 58 | 0.9 | 0.9 | 0.00 | 0.00 | 0.00 | 75 | 1011.1 |
| 20260507121810 | 42 | 35 | 0.9 | 0.9 | 0.00 | 0.00 | 0.00 | 75 | 1010.9 |
| 20260507121306 | 40 | 29 | 0.9 | 0.9 | 0.00 | 0.00 | 0.00 | 82 | 1010.9 |
| 20260507120802 | 40 | 46 | 0.0 | 0.0 | 0.00 | 0.00 | 0.00 | 90 | 1010.8 |
| 20260507120259 | 39 | 46 | 0.0 | 0.0 | 0.00 | 0.00 | 0.00 | 90 | 1011.0 |
| 20260507115755 | 38 | 48 | 0.0 | 0.9 | 0.00 | 0.00 | 0.00 | 96 | 1011.0 |
| 20260507115250 | 37 | 263 | 1.7 | 1.7 | 0.00 | 0.00 | 0.00 | 98 | 1010.8 |
| 20260507114746 | 37 | 72 | 0.0 | 0.0 | 0.00 | 0.00 | 0.00 | 99 | 1010.9 |
| 20260507114244 | 36 | 72 | 0.0 | 0.0 | 0.00 | 0.00 | 0.00 | 99 | 1010.8 |
| 20260507113741 | 36 | 72 | 0.0 | 0.0 | 0.00 | 0.00 | 0.00 | 99 | 1010.7 |
| 20260507113238 | 35 | 73 | 0.0 | 0.0 | 0.00 | 0.00 | 0.00 | 99 | 1010.6 |
| 20260507112736 | 35 | 73 | 0.0 | 0.0 | 0.00 | 0.00 | 0.00 | 99 | 1010.5 |
| 20260507112232 | 35 | 73 | 0.0 | 0.0 | 0.00 | 0.00 | 0.00 | 99 | 1010.6 |
| 20260507111730 | 34 | 73 | 0.0 | 0.0 | 0.00 | 0.00 | 0.00 | 99 | 1010.3 |
| 20260507111227 | 34 | 73 | 0.0 | 0.0 | 0.00 | 0.00 | 0.00 | 99 | 1010.4 |
| 20260507110723 | 34 | 73 | 0.0 | 0.0 | 0.00 | 0.00 | 0.00 | 99 | 1010.4 |
| 20260507110219 | 33 | 73 | 0.0 | 0.0 | 0.00 | 0.00 | 0.00 | 99 | 1010.5 |
| 20260507105716 | 33 | 73 | 0.0 | 0.0 | 0.00 | 0.00 | 0.00 | 99 | 1010.5 |
| 20260507105212 | 33 | 73 | 0.0 | 0.0 | 0.00 | 0.00 | 0.00 | 99 | 1010.4 |
| 20260507104710 | 33 | 73 | 0.0 | 0.0 | 0.00 | 0.00 | 0.00 | 99 | 1010.2 |
| 20260507104206 | 33 | 73 | 0.0 | 0.0 | 0.00 | 0.00 | 0.00 | 99 | 1010.3 |
| 20260507103702 | 33 | 73 | 0.0 | 0.0 | 0.00 | 0.00 | 0.00 | 99 | 1010.2 |
| 20260507103159 | 33 | 73 | 0.0 | 0.0 | 0.00 | 0.00 | 0.00 | 99 | 1010.0 |
| 20260507102655 | 33 | 73 | 0.0 | 0.0 | 0.00 | 0.00 | 0.00 | 99 | 1009.9 |
| 20260507102152 | 33 | 73 | 0.0 | 0.0 | 0.00 | 0.00 | 0.00 | 99 | 1010.0 |
| 20260507101647 | 33 | 73 | 0.0 | 0.0 | 0.00 | 0.00 | 0.00 | 99 | 1009.9 |
| 20260507101143 | 33 | 73 | 0.0 | 0.0 | 0.00 | 0.00 | 0.00 | 99 | 1010.2 |
| 20260507100641 | 33 | 73 | 0.0 | 0.0 | 0.00 | 0.00 | 0.00 | 99 | 1010.2 |
| 20260507100140 | 33 | 73 | 0.0 | 0.9 | 0.00 | 0.00 | 0.00 | 99 | 1010.2 |
| 20260507095637 | 33 | 73 | 0.0 | 0.0 | 0.00 | 0.00 | 0.00 | 99 | 1009.9 |
| 20260507095133 | 33 | 73 | 0.0 | 0.0 | 0.00 | 0.00 | 0.00 | 99 | 1010.0 |
| 20260507094629 | 33 | 73 | 0.0 | 0.0 | 0.00 | 0.00 | 0.00 | 99 | 1009.9 |
| 20260507094126 | 33 | 73 | 0.0 | 0.0 | 0.00 | 0.00 | 0.00 | 99 | 1010.0 |
| 20260507093624 | 34 | 73 | 0.0 | 0.9 | 0.00 | 0.00 | 0.00 | 99 | 1010.2 |
| 20260507093123 | 34 | 73 | 0.0 | 0.9 | 0.00 | 0.00 | 0.00 | 98 | 1010.3 |
| 20260507092619 | 34 | 73 | 0.0 | 0.0 | 0.00 | 0.00 | 0.00 | 98 | 1010.3 |
| 20260507092115 | 34 | 73 | 0.0 | 0.0 | 0.00 | 0.00 | 0.00 | 98 | 1009.9 |
| 20260507091612 | 34 | 73 | 0.0 | 0.0 | 0.00 | 0.00 | 0.00 | 97 | 1010.0 |
| 20260507091108 | 34 | 73 | 0.0 | 0.0 | 0.00 | 0.00 | 0.00 | 98 | 1009.9 |
| 20260507090604 | 34 | 73 | 0.0 | 0.0 | 0.00 | 0.00 | 0.00 | 97 | 1010.2 |
| 20260507090101 | 35 | 73 | 0.0 | 0.0 | 0.00 | 0.00 | 0.00 | 98 | 1010.2 |
| 20260507085558 | 35 | 73 | 0.0 | 0.0 | 0.00 | 0.00 | 0.00 | 97 | 1010.0 |
| 20260507085055 | 35 | 73 | 0.0 | 0.0 | 0.00 | 0.00 | 0.00 | 97 | 1010.0 |
| 20260507084551 | 35 | 73 | 0.9 | 0.9 | 0.00 | 0.00 | 0.00 | 97 | 1010.2 |
| 20260507084048 | 35 | 73 | 0.0 | 0.0 | 0.00 | 0.00 | 0.00 | 97 | 1010.0 |
| 20260507083544 | 35 | 73 | 0.0 | 0.0 | 0.00 | 0.00 | 0.00 | 95 | 1010.0 |
| 20260507083042 | 36 | 72 | 0.0 | 0.9 | 0.00 | 0.00 | 0.00 | 96 | 1010.2 |
| 20260507082538 | 36 | 76 | 0.0 | 0.0 | 0.00 | 0.00 | 0.00 | 95 | 1009.8 |
| 20260507082034 | 36 | 72 | 0.0 | 0.0 | 0.00 | 0.00 | 0.00 | 95 | 1009.9 |
| 20260507081531 | 36 | 60 | 0.0 | 0.0 | 0.00 | 0.00 | 0.00 | 95 | 1010.0 |
| 20260507081028 | 37 | 56 | 0.0 | 0.0 | 0.00 | 0.00 | 0.00 | 96 | 1010.3 |
| 20260507080523 | 37 | 55 | 0.0 | 0.0 | 0.00 | 0.00 | 0.00 | 95 | 1010.4 |
| 20260507080020 | 38 | 55 | 0.0 | 0.0 | 0.00 | 0.00 | 0.00 | 93 | 1010.2 |
| 20260507075515 | 38 | 55 | 0.0 | 0.0 | 0.00 | 0.00 | 0.00 | 92 | 1010.3 |
| 20260507075012 | 39 | 55 | 0.0 | 0.0 | 0.00 | 0.00 | 0.00 | 90 | 1010.0 |
| 20260507074509 | 39 | 55 | 0.0 | 0.0 | 0.00 | 0.00 | 0.00 | 89 | 1009.9 |
| 20260507074008 | 40 | 55 | 0.0 | 0.0 | 0.00 | 0.00 | 0.00 | 88 | 1010.0 |
| 20260507073503 | 40 | 54 | 0.0 | 0.0 | 0.00 | 0.00 | 0.00 | 85 | 1009.9 |
| 20260507073000 | 41 | 54 | 0.0 | 0.0 | 0.00 | 0.00 | 0.00 | 87 | 1010.2 |
| 20260507072458 | 41 | 54 | 0.0 | 0.0 | 0.00 | 0.00 | 0.00 | 86 | 1010.3 |
| 20260507071954 | 41 | 54 | 0.0 | 0.0 | 0.00 | 0.00 | 0.00 | 86 | 1010.2 |
| 20260507071451 | 41 | 54 | 0.0 | 0.0 | 0.00 | 0.00 | 0.00 | 85 | 1010.4 |
| 20260507070948 | 41 | 55 | 0.0 | 0.0 | 0.00 | 0.00 | 0.00 | 87 | 1010.4 |
| 20260507070445 | 41 | 55 | 0.0 | 0.0 | 0.00 | 0.00 | 0.00 | 86 | 1010.3 |
| 20260507065942 | 41 | 55 | 0.0 | 0.0 | 0.00 | 0.00 | 0.00 | 87 | 1009.9 |
| 20260507065439 | 42 | 55 | 0.0 | 0.0 | 0.00 | 0.00 | 0.00 | 88 | 1010.0 |
| 20260507064936 | 42 | 55 | 0.0 | 0.0 | 0.00 | 0.00 | 0.00 | 84 | 1010.3 |
| 20260507064434 | 42 | 54 | 0.0 | 0.0 | 0.00 | 0.00 | 0.00 | 81 | 1010.5 |
| 20260507063932 | 42 | 54 | 0.0 | 0.0 | 0.00 | 0.00 | 0.00 | 81 | 1010.4 |
| 20260507063428 | 42 | 54 | 0.0 | 0.0 | 0.00 | 0.00 | 0.00 | 82 | 1010.3 |
| 20260507062926 | 42 | 53 | 0.0 | 0.0 | 0.00 | 0.00 | 0.00 | 80 | 1010.5 |
| 20260507062423 | 42 | 65 | 0.0 | 0.0 | 0.00 | 0.00 | 0.00 | 78 | 1010.4 |
| 20260507061915 | 42 | 29 | 0.9 | 0.9 | 0.00 | 0.00 | 0.00 | 79 | 1010.3 |
| 20260507061412 | 43 | 69 | 0.0 | 0.0 | 0.00 | 0.00 | 0.00 | 79 | 1010.5 |
| 20260507060911 | 42 | 27 | 0.9 | 0.9 | 0.00 | 0.00 | 0.00 | 77 | 1010.7 |
| 20260507060407 | 43 | 49 | 0.0 | 0.0 | 0.00 | 0.00 | 0.00 | 80 | 1010.7 |
| 20260507055904 | 43 | 53 | 0.0 | 0.0 | 0.00 | 0.00 | 0.00 | 77 | 1010.7 |
| 20260507055359 | 43 | 59 | 0.0 | 0.0 | 0.00 | 0.00 | 0.00 | 79 | 1010.7 |
| 20260507054856 | 42 | 61 | 0.9 | 0.9 | 0.00 | 0.00 | 0.00 | 79 | 1010.8 |
| 20260507054352 | 43 | 44 | 0.0 | 0.9 | 0.00 | 0.00 | 0.00 | 79 | 1010.8 |
| 20260507053850 | 43 | 41 | 0.0 | 0.9 | 0.00 | 0.00 | 0.00 | 78 | 1010.8 |
| 20260507053347 | 43 | 13 | 1.7 | 1.7 | 0.00 | 0.00 | 0.00 | 76 | 1010.7 |
| 20260507052846 | 43 | 22 | 0.9 | 1.7 | 0.00 | 0.00 | 0.00 | 81 | 1010.6 |
| 20260507052342 | 43 | 33 | 0.9 | 0.9 | 0.00 | 0.00 | 0.00 | 82 | 1010.7 |
| 20260507051840 | 43 | 46 | 0.0 | 0.9 | 0.00 | 0.00 | 0.00 | 83 | 1010.6 |
| 20260507051337 | 43 | 46 | 0.0 | 0.0 | 0.00 | 0.00 | 0.00 | 86 | 1010.7 |
| 20260507050833 | 43 | 46 | 0.0 | 0.0 | 0.00 | 0.00 | 0.00 | 87 | 1010.7 |
| 20260507050330 | 42 | 63 | 0.0 | 0.0 | 0.00 | 0.00 | 0.00 | 89 | 1011.0 |
| 20260507045827 | 42 | 63 | 0.0 | 0.0 | 0.00 | 0.00 | 0.00 | 90 | 1010.6 |
| 20260507045323 | 43 | 63 | 0.0 | 0.0 | 0.00 | 0.00 | 0.00 | 88 | 1010.8 |
| 20260507044821 | 43 | 63 | 0.0 | 0.0 | 0.00 | 0.00 | 0.00 | 89 | 1010.7 |
| 20260507044317 | 43 | 63 | 0.0 | 0.0 | 0.00 | 0.00 | 0.00 | 87 | 1010.8 |
| 20260507043813 | 43 | 63 | 0.0 | 0.0 | 0.00 | 0.00 | 0.00 | 86 | 1010.9 |
| 20260507043310 | 43 | 63 | 0.0 | 0.0 | 0.00 | 0.00 | 0.00 | 86 | 1010.6 |
| 20260507042806 | 44 | 63 | 0.0 | 0.0 | 0.00 | 0.00 | 0.00 | 87 | 1010.8 |
| 20260507042302 | 44 | 63 | 0.0 | 0.0 | 0.00 | 0.00 | 0.00 | 84 | 1010.8 |
| 20260507041759 | 44 | 62 | 0.0 | 0.0 | 0.00 | 0.00 | 0.00 | 84 | 1010.7 |
| 20260507041255 | 44 | 68 | 0.0 | 0.0 | 0.00 | 0.00 | 0.00 | 86 | 1010.7 |
| 20260507040753 | 44 | 68 | 0.0 | 0.0 | 0.00 | 0.00 | 0.00 | 85 | 1010.8 |
| 20260507040248 | 44 | 71 | 0.0 | 0.0 | 0.00 | 0.00 | 0.00 | 88 | 1011.0 |
| 20260507035745 | 44 | 72 | 0.0 | 0.0 | 0.00 | 0.18 | 0.18 | 89 | 1010.7 |
| 20260507035240 | 44 | 71 | 0.0 | 0.0 | 0.00 | 0.18 | 0.18 | 91 | 1010.7 |
| 20260507034738 | 44 | 71 | 0.0 | 0.0 | 0.00 | 0.18 | 0.18 | 90 | 1010.5 |
| 20260507034235 | 44 | 71 | 0.0 | 0.0 | 0.00 | 0.18 | 0.18 | 90 | 1010.4 |
| 20260507033733 | 44 | 71 | 0.0 | 0.0 | 0.00 | 0.18 | 0.18 | 88 | 1010.4 |
| 20260507033230 | 44 | 71 | 0.0 | 0.0 | 0.00 | 0.18 | 0.18 | 89 | 1010.3 |
| 20260507032728 | 44 | 71 | 0.0 | 0.0 | 0.00 | 0.18 | 0.18 | 88 | 1010.8 |
| 20260507032223 | 44 | 71 | 0.0 | 0.0 | 0.00 | 0.18 | 0.18 | 89 | 1010.4 |
| 20260507031720 | 45 | 71 | 0.0 | 0.0 | 0.00 | 0.18 | 0.18 | 90 | 1010.6 |
| 20260507031217 | 44 | 71 | 0.0 | 0.0 | 0.00 | 0.18 | 0.18 | 86 | 1010.6 |
| 20260507030714 | 45 | 71 | 0.0 | 0.0 | 0.00 | 0.18 | 0.18 | 89 | 1010.4 |
| 20260507030211 | 45 | 71 | 0.0 | 0.0 | 0.00 | 0.18 | 0.18 | 87 | 1010.4 |
| 20260507025708 | 45 | 72 | 0.0 | 0.0 | 0.00 | 0.18 | 0.18 | 85 | 1010.3 |
| 20260507025205 | 45 | 68 | 0.0 | 0.0 | 0.00 | 0.18 | 0.18 | 82 | 1010.7 |
| 20260507024703 | 45 | 62 | 0.0 | 0.0 | 0.00 | 0.18 | 0.18 | 81 | 1010.3 |
| 20260507024200 | 46 | 34 | 0.9 | 1.7 | 0.00 | 0.18 | 0.18 | 80 | 1010.3 |
| 20260507023655 | 46 | 109 | 0.0 | 0.9 | 0.00 | 0.18 | 0.18 | 79 | 1010.0 |
| 20260507023153 | 46 | 63 | 0.0 | 0.0 | 0.00 | 0.18 | 0.18 | 79 | 1010.2 |
| 20260507022650 | 46 | 5 | 0.9 | 0.9 | 0.00 | 0.18 | 0.18 | 79 | 1010.2 |
| 20260507022146 | 46 | 43 | 0.9 | 0.9 | 0.00 | 0.18 | 0.18 | 81 | 1010.0 |
| 20260507021642 | 46 | 106 | 0.9 | 1.7 | 0.00 | 0.18 | 0.18 | 82 | 1009.8 |
| 20260507021132 | 46 | 22 | 0.9 | 1.7 | 0.00 | 0.18 | 0.18 | 83 | 1009.7 |
| 20260507020631 | 46 | 84 | 0.9 | 0.9 | 0.00 | 0.18 | 0.18 | 80 | 1009.8 |
| 20260507020127 | 46 | 356 | 1.7 | 1.7 | 0.00 | 0.18 | 0.18 | 82 | 1009.6 |
| 20260507015626 | 46 | 117 | 0.9 | 0.9 | 0.00 | 0.18 | 0.18 | 85 | 1010.0 |
| 20260507015123 | 46 | 359 | 1.7 | 1.7 | 0.00 | 0.18 | 0.18 | 88 | 1010.0 |
| 20260507014619 | 46 | 273 | 2.6 | 2.6 | 0.00 | 0.18 | 0.18 | 89 | 1009.9 |
| 20260507014115 | 46 | 63 | 0.0 | 0.0 | 0.00 | 0.18 | 0.18 | 93 | 1009.7 |
| 20260507013612 | 46 | 74 | 0.0 | 0.9 | 0.00 | 0.18 | 0.18 | 91 | 1009.7 |
| 20260507013109 | 47 | 45 | 0.0 | 0.0 | 0.00 | 0.18 | 0.18 | 93 | 1009.7 |
| 20260507012607 | 47 | 43 | 0.0 | 0.0 | 0.00 | 0.18 | 0.18 | 93 | 1009.9 |
| 20260507012102 | 47 | 51 | 0.0 | 0.0 | 0.00 | 0.18 | 0.18 | 91 | 1010.2 |
| 20260507011600 | 47 | 50 | 0.0 | 0.0 | 0.00 | 0.18 | 0.18 | 92 | 1010.2 |
| 20260507011056 | 47 | 42 | 0.9 | 0.9 | 0.00 | 0.18 | 0.18 | 92 | 1010.3 |
| 20260507010556 | 47 | 43 | 0.9 | 0.9 | 0.00 | 0.18 | 0.18 | 92 | 1010.2 |
| 20260507010052 | 47 | 44 | 0.0 | 0.0 | 0.00 | 0.18 | 0.18 | 92 | 1010.3 |
| 20260507005550 | 48 | 45 | 0.0 | 0.0 | 0.00 | 0.18 | 0.18 | 92 | 1010.3 |
| 20260507005046 | 48 | 50 | 0.0 | 0.0 | 0.00 | 0.18 | 0.18 | 92 | 1010.2 |
| 20260507004543 | 48 | 44 | 0.0 | 0.9 | 0.00 | 0.18 | 0.18 | 92 | 1010.4 |
| 20260507004040 | 48 | 39 | 0.9 | 0.9 | 0.00 | 0.18 | 0.18 | 90 | 1010.3 |
| 20260507003537 | 48 | 155 | 1.7 | 2.6 | 0.00 | 0.18 | 0.18 | 92 | 1010.0 |
| 20260507003032 | 48 | 47 | 0.0 | 0.0 | 0.00 | 0.18 | 0.18 | 93 | 1009.8 |
| 20260507002529 | 48 | 36 | 0.9 | 0.9 | 0.00 | 0.18 | 0.18 | 93 | 1009.9 |
| 20260507002024 | 48 | 39 | 0.0 | 0.9 | 0.00 | 0.18 | 0.18 | 92 | 1010.3 |
| 20260507001521 | 48 | 20 | 0.9 | 0.9 | 0.00 | 0.18 | 0.18 | 91 | 1009.9 |
| 20260507001019 | 48 | 17 | 0.9 | 1.7 | 0.00 | 0.18 | 0.18 | 91 | 1009.8 |
| 20260507000514 | 48 | 39 | 0.9 | 0.9 | 0.00 | 0.18 | 0.18 | 91 | 1009.8 |
| 20260507000010 | 48 | 62 | 0.0 | 0.0 | 0.00 | 0.18 | 0.18 | 92 | 1009.6 |
| 20260506235507 | 48 | 26 | 0.9 | 0.9 | 0.00 | 0.18 | 0.18 | 91 | 1009.4 |
| 20260506235003 | 48 | 44 | 0.0 | 0.0 | 0.00 | 0.18 | 0.18 | 90 | 1009.3 |
| 20260506234501 | 48 | 37 | 0.9 | 0.9 | 0.00 | 0.18 | 0.18 | 90 | 1009.3 |
| 20260506233959 | 48 | 42 | 0.0 | 0.0 | 0.00 | 0.18 | 0.18 | 91 | 1009.3 |
| 20260506233455 | 48 | 42 | 0.0 | 0.9 | 0.00 | 0.18 | 0.18 | 91 | 1009.3 |
| 20260506232951 | 48 | 291 | 1.7 | 2.6 | 0.00 | 0.18 | 0.18 | 91 | 1009.1 |
| 20260506232448 | 48 | 38 | 0.0 | 0.9 | 0.00 | 0.18 | 0.18 | 92 | 1009.1 |
| 20260506231943 | 48 | 33 | 0.9 | 0.9 | 0.00 | 0.18 | 0.18 | 92 | 1009.2 |
| 20260506231441 | 48 | 15 | 1.7 | 1.7 | 0.00 | 0.18 | 0.18 | 92 | 1009.1 |
| 20260506230938 | 48 | 33 | 0.9 | 0.9 | 0.00 | 0.18 | 0.18 | 92 | 1008.8 |
| 20260506230434 | 48 | 30 | 0.9 | 1.7 | 0.00 | 0.18 | 0.18 | 92 | 1008.9 |
| 20260506225931 | 49 | 15 | 0.9 | 1.7 | 0.00 | 0.18 | 0.18 | 93 | 1008.9 |
| 20260506225428 | 49 | 42 | 0.0 | 0.0 | 0.00 | 0.18 | 0.18 | 92 | 1008.8 |
| 20260506224925 | 49 | 4 | 0.9 | 0.9 | 0.00 | 0.18 | 0.18 | 92 | 1009.0 |
| 20260506224422 | 48 | 355 | 1.7 | 1.7 | 0.00 | 0.18 | 0.18 | 92 | 1008.7 |
| 20260506223919 | 49 | 40 | 0.9 | 0.9 | 0.00 | 0.18 | 0.18 | 94 | 1008.7 |
| 20260506223414 | 49 | 28 | 0.9 | 0.9 | 0.00 | 0.18 | 0.18 | 94 | 1008.9 |
| 20260506222911 | 49 | 7 | 0.9 | 1.7 | 0.00 | 0.18 | 0.18 | 94 | 1008.8 |
| 20260506222408 | 48 | 24 | 0.9 | 1.7 | 0.00 | 0.18 | 0.18 | 93 | 1008.9 |
| 20260506221906 | 49 | 22 | 1.7 | 2.6 | 0.00 | 0.18 | 0.18 | 93 | 1009.0 |
| 20260506221402 | 49 | 278 | 2.6 | 2.6 | 0.00 | 0.18 | 0.18 | 93 | 1008.9 |
| 20260506220859 | 49 | 340 | 1.7 | 1.7 | 0.00 | 0.18 | 0.18 | 92 | 1008.7 |
| 20260506220355 | 49 | 286 | 3.5 | 5.2 | 0.00 | 0.18 | 0.18 | 92 | 1008.8 |
| 20260506215852 | 49 | 30 | 0.9 | 0.9 | 0.00 | 0.18 | 0.18 | 93 | 1008.4 |
| 20260506215348 | 49 | 32 | 0.0 | 0.9 | 0.00 | 0.18 | 0.18 | 93 | 1008.2 |
| 20260506214844 | 49 | 36 | 0.9 | 0.9 | 0.00 | 0.18 | 0.18 | 93 | 1008.4 |
| 20260506214341 | 49 | 85 | 0.9 | 0.9 | 0.00 | 0.18 | 0.18 | 93 | 1008.2 |
| 20260506213839 | 49 | 272 | 2.6 | 2.6 | 0.00 | 0.18 | 0.18 | 93 | 1008.2 |
| 20260506213336 | 49 | 296 | 2.6 | 2.6 | 0.00 | 0.18 | 0.18 | 93 | 1008.4 |
| 20260506212833 | 50 | 356 | 0.9 | 1.7 | 0.00 | 0.18 | 0.18 | 94 | 1007.9 |
| 20260506212329 | 50 | 69 | 0.9 | 1.7 | 0.00 | 0.18 | 0.18 | 94 | 1007.8 |
| 20260506211824 | 50 | 8 | 1.7 | 1.7 | 0.00 | 0.18 | 0.18 | 94 | 1008.0 |
| 20260506211320 | 50 | 27 | 0.9 | 0.9 | 0.00 | 0.18 | 0.18 | 94 | 1007.9 |
| 20260506210818 | 50 | 36 | 0.0 | 0.9 | 0.00 | 0.18 | 0.18 | 95 | 1007.9 |
| 20260506210314 | 50 | 25 | 2.6 | 2.6 | 0.00 | 0.18 | 0.18 | 95 | 1007.7 |
| 20260506205812 | 50 | 10 | 0.9 | 1.7 | 0.00 | 0.18 | 0.18 | 96 | 1007.6 |
| 20260506205308 | 50 | 333 | 1.7 | 2.6 | 0.00 | 0.18 | 0.18 | 95 | 1007.6 |
| 20260506204804 | 50 | 23 | 0.9 | 0.9 | 0.00 | 0.18 | 0.18 | 96 | 1007.5 |
| 20260506204302 | 50 | 7 | 1.7 | 1.7 | 0.00 | 0.18 | 0.18 | 95 | 1007.2 |
| 20260506203800 | 50 | 315 | 1.7 | 1.7 | 0.00 | 0.18 | 0.18 | 97 | 1007.5 |
| 20260506203257 | 50 | 286 | 3.5 | 3.5 | 0.00 | 0.18 | 0.18 | 97 | 1007.2 |
| 20260506202753 | 50 | 32 | 0.9 | 0.9 | 0.00 | 0.18 | 0.18 | 97 | 1007.4 |
| 20260506202250 | 50 | 278 | 2.6 | 2.6 | 0.00 | 0.18 | 0.18 | 97 | 1007.3 |
| 20260506201747 | 50 | 3 | 1.7 | 3.5 | 0.00 | 0.18 | 0.18 | 98 | 1007.4 |
| 20260506201244 | 50 | 24 | 1.7 | 1.7 | 0.00 | 0.18 | 0.18 | 98 | 1007.7 |
| 20260506200741 | 50 | 296 | 2.6 | 2.6 | 0.00 | 0.18 | 0.18 | 98 | 1007.5 |
| 20260506200237 | 50 | 352 | 1.7 | 1.7 | 0.00 | 0.18 | 0.18 | 99 | 1007.7 |
| 20260506195733 | 50 | 9 | 0.9 | 1.7 | 0.00 | 0.18 | 0.18 | 99 | 1007.5 |
| 20260506195230 | 50 | 345 | 1.7 | 1.7 | 0.00 | 0.18 | 0.18 | 99 | 1007.5 |
| 20260506194728 | 50 | 301 | 3.5 | 3.5 | 0.00 | 0.18 | 0.18 | 99 | 1007.3 |
| 20260506194224 | 50 | 288 | 1.7 | 1.7 | 0.00 | 0.18 | 0.18 | 99 | 1007.4 |
| 20260506193722 | 50 | 358 | 1.7 | 1.7 | 0.00 | 0.18 | 0.18 | 99 | 1007.6 |
| 20260506193218 | 50 | 301 | 3.5 | 3.5 | 0.00 | 0.18 | 0.18 | 99 | 1007.1 |
| 20260506192715 | 50 | 8 | 1.7 | 2.6 | 0.00 | 0.18 | 0.18 | 99 | 1007.3 |
| 20260506192212 | 50 | 0 | 2.6 | 2.6 | 0.00 | 0.18 | 0.18 | 99 | 1007.2 |
| 20260506191703 | 50 | 296 | 1.7 | 2.6 | 0.00 | 0.18 | 0.18 | 99 | 1007.3 |
| 20260506191159 | 50 | 331 | 1.7 | 1.7 | 0.00 | 0.18 | 0.18 | 99 | 1007.2 |
| 20260506190656 | 50 | 335 | 1.7 | 1.7 | 0.00 | 0.18 | 0.18 | 99 | 1007.0 |
| 20260506190153 | 50 | 29 | 1.7 | 1.7 | 0.00 | 0.18 | 0.18 | 99 | 1007.0 |
| 20260506185650 | 50 | 8 | 2.6 | 2.6 | 0.00 | 0.18 | 0.18 | 99 | 1007.1 |
| 20260506185146 | 50 | 316 | 2.6 | 3.5 | 0.00 | 0.18 | 0.18 | 99 | 1007.1 |
| 20260506184644 | 50 | 320 | 2.6 | 2.6 | 0.00 | 0.18 | 0.18 | 99 | 1006.9 |
| 20260506184141 | 50 | 303 | 3.5 | 3.5 | 0.00 | 0.18 | 0.18 | 99 | 1007.0 |
| 20260506183637 | 50 | 255 | 2.6 | 2.6 | 0.00 | 0.18 | 0.18 | 99 | 1007.0 |
| 20260506183133 | 50 | 329 | 1.7 | 1.7 | 0.00 | 0.18 | 0.18 | 99 | 1006.9 |
| 20260506182631 | 50 | 39 | 0.0 | 0.9 | 0.00 | 0.18 | 0.18 | 99 | 1007.0 |
| 20260506182128 | 50 | 5 | 1.7 | 1.7 | 0.00 | 0.18 | 0.18 | 99 | 1006.9 |
| 20260506181626 | 50 | 35 | 0.9 | 0.9 | 0.00 | 0.18 | 0.18 | 99 | 1006.8 |
| 20260506181123 | 51 | 282 | 2.6 | 2.6 | 0.00 | 0.18 | 0.18 | 99 | 1006.6 |
| 20260506180619 | 51 | 306 | 2.6 | 2.6 | 0.00 | 0.18 | 0.18 | 99 | 1006.8 |
| 20260506180116 | 52 | 294 | 3.5 | 3.5 | 0.00 | 0.18 | 0.18 | 99 | 1006.9 |
| 20260506175612 | 52 | 294 | 2.6 | 2.6 | 0.00 | 0.18 | 0.18 | 99 | 1006.8 |
| 20260506175108 | 53 | 268 | 2.6 | 5.2 | 0.00 | 0.18 | 0.18 | 99 | 1006.4 |
| 20260506174608 | 53 | 293 | 2.6 | 2.6 | 0.00 | 0.18 | 0.18 | 99 | 1006.1 |
| 20260506174103 | 53 | 327 | 3.5 | 5.2 | 0.00 | 0.18 | 0.18 | 99 | 1006.2 |
| 20260506173601 | 54 | 304 | 2.6 | 2.6 | 0.00 | 0.18 | 0.18 | 99 | 1006.4 |
| 20260506173058 | 54 | 319 | 3.5 | 3.5 | 0.00 | 0.18 | 0.18 | 99 | 1006.2 |
| 20260506172555 | 54 | 308 | 2.6 | 3.5 | 0.00 | 0.18 | 0.18 | 99 | 1006.0 |
| 20260506172051 | 54 | 271 | 1.7 | 1.7 | 0.00 | 0.18 | 0.18 | 99 | 1005.9 |
| 20260506171549 | 54 | 289 | 3.5 | 3.5 | 0.00 | 0.18 | 0.18 | 99 | 1006.1 |
| 20260506171046 | 53 | 234 | 1.7 | 2.6 | 0.00 | 0.18 | 0.18 | 99 | 1006.0 |
| 20260506170543 | 54 | 345 | 1.7 | 1.7 | 0.00 | 0.18 | 0.18 | 99 | 1005.9 |
| 20260506170035 | 53 | 16 | 1.7 | 1.7 | 0.00 | 0.18 | 0.18 | 99 | 1005.9 |
| 20260506165533 | 53 | 17 | 0.9 | 0.9 | 0.07 | 0.18 | 0.18 | 99 | 1006.1 |
| 20260506165029 | 53 | 305 | 1.7 | 2.6 | 0.07 | 0.18 | 0.18 | 99 | 1005.9 |
| 20260506164526 | 53 | 37 | 0.9 | 1.7 | 0.00 | 0.17 | 0.17 | 99 | 1006.1 |